Time;durP1;ratioP1;P1;durP2;ratioP2;P2;SDS_P1;SDS_P2;PMS_P1;PMS_P2;Temp;Humidity;BMP_temperature;BMP_pressure;BME280_temperature;BME280_humidity;BME280_pressure;Samples;Min_cycle;Max_cycle;Signal;HPM_P1;HPM_P2
2022/08/16 00:00:57;;;;;;;;;34.25;30.25;;;;;25.24;49.91;100436.00;5068152;28;45546;-72
2022/08/16 00:03:22;;;;;;;;;37.00;32.00;;;;;25.27;50.19;100446.38;5063634;28;45588;-71
2022/08/16 00:05:48;;;;;;;;;32.50;29.25;;;;;25.28;50.05;100448.06;5070676;27;45890;-72
2022/08/16 00:08:14;;;;;;;;;37.00;32.00;;;;;25.26;50.01;100442.03;5062662;28;45531;-78
2022/08/16 00:10:40;;;;;;;;;32.75;30.25;;;;;25.22;49.95;100440.75;5060510;28;45243;-73
2022/08/16 00:13:08;;;;;;;;;36.25;31.50;;;;;25.21;50.33;100444.47;5076115;27;45725;-73
2022/08/16 00:15:45;;;;;;;;;37.25;31.50;;;;;25.14;50.23;100443.59;5060129;28;46260;-70
2022/08/16 00:18:12;;;;;;;;;36.25;31.00;;;;;25.07;50.47;100448.91;5060405;28;45305;-71
2022/08/16 00:20:40;;;;;;;;;31.50;29.50;;;;;25.05;50.38;100457.19;5060170;28;45295;-71
2022/08/16 00:23:05;;;;;;;;;30.75;28.25;;;;;25.07;50.78;100461.56;5060625;28;45311;-77
2022/08/16 00:25:32;;;;;;;;;34.50;30.75;;;;;25.03;50.75;100453.81;5052294;28;47942;-70
2022/08/16 00:27:57;;;;;;;;;34.75;29.75;;;;;25.00;50.70;100458.75;5060100;28;45233;-74
2022/08/16 00:30:23;;;;;;;;;35.75;32.75;;;;;24.96;50.57;100457.44;5061753;28;45264;-77
2022/08/16 00:32:53;;;;;;;;;40.00;32.75;;;;;24.93;50.89;100463.22;5063701;28;45155;-71
2022/08/16 00:35:24;;;;;;;;;39.50;33.25;;;;;24.92;50.61;100466.97;5063693;28;46512;-72
2022/08/16 00:37:50;;;;;;;;;32.75;31.00;;;;;24.90;50.78;100463.63;5063626;28;45305;-71
2022/08/16 00:40:25;;;;;;;;;35.50;31.50;;;;;24.90;51.20;100463.63;5061561;28;45304;-71
2022/08/16 00:42:51;;;;;;;;;35.00;30.00;;;;;24.90;50.51;100463.63;5053460;28;45613;-74
2022/08/16 00:45:38;;;;;;;;;37.50;32.00;;;;;24.90;50.50;100464.47;5063399;28;45338;-71
2022/08/16 00:48:07;;;;;;;;;33.50;29.00;;;;;24.92;51.10;100469.66;5062090;28;45451;-73
2022/08/16 00:50:36;;;;;;;;;31.50;30.00;;;;;24.90;50.96;100459.06;5063258;28;45323;-72
2022/08/16 00:53:06;;;;;;;;;25.50;25.25;;;;;24.91;50.61;100467.97;5062733;28;45340;-73
2022/08/16 00:55:35;;;;;;;;;33.25;30.00;;;;;24.92;50.92;100465.09;5062978;28;45417;-72
2022/08/16 00:58:00;;;;;;;;;30.25;29.00;;;;;24.92;50.47;100458.88;5062825;28;45350;-72
2022/08/16 01:00:29;;;;;;;;;29.50;27.75;;;;;24.94;50.55;100452.25;5063344;28;45342;-72
2022/08/16 01:02:58;;;;;;;;;30.50;29.00;;;;;24.95;51.00;100448.53;5063161;28;45752;-71
2022/08/16 01:05:24;;;;;;;;;32.75;29.00;;;;;24.94;50.62;100443.34;5063028;28;46584;-72
2022/08/16 01:07:51;;;;;;;;;33.25;27.00;;;;;24.92;50.60;100440.84;5063012;28;45326;-71
2022/08/16 01:10:17;;;;;;;;;30.75;28.25;;;;;24.92;50.77;100442.69;5063089;28;45406;-73
2022/08/16 01:12:42;;;;;;;;;29.00;27.00;;;;;24.90;50.63;100437.50;5061665;28;45414;-71
2022/08/16 01:15:09;;;;;;;;;31.75;27.75;;;;;24.91;50.62;100441.03;5053500;28;45378;-73
2022/08/16 01:17:36;;;;;;;;;34.00;29.25;;;;;24.94;50.95;100436.09;5042826;28;45526;-73
2022/08/16 01:20:06;;;;;;;;;32.75;28.50;;;;;24.93;50.40;100434.41;5042739;28;45494;-73
2022/08/16 01:23:02;;;;;;;;;29.25;27.25;;;;;24.91;50.80;100430.25;5042880;28;45577;-74
2022/08/16 01:25:32;;;;;;;;;24.75;23.50;;;;;24.92;50.62;100426.53;5061601;28;45423;-76
2022/08/16 01:28:02;;;;;;;;;26.75;25.25;;;;;24.89;50.99;100418.84;5062821;28;45302;-77
2022/08/16 01:30:31;;;;;;;;;28.75;27.75;;;;;24.88;50.60;100422.53;5062729;28;45435;-74
2022/08/16 01:33:03;;;;;;;;;32.00;28.25;;;;;24.86;50.67;100427.28;5061530;28;45485;-72
2022/08/16 01:35:34;;;;;;;;;29.25;28.25;;;;;24.86;50.81;100438.06;5062700;28;46216;-76
2022/08/16 01:38:28;;;;;;;;;35.50;29.75;;;;;24.86;50.92;100441.59;5062669;28;45295;-72
2022/08/16 01:40:58;;;;;;;;;32.75;29.00;;;;;24.87;51.30;100439.75;5062224;28;45647;-70
2022/08/16 01:43:24;;;;;;;;;30.25;26.25;;;;;24.85;51.18;100442.63;5062334;28;45328;-76
2022/08/16 01:45:59;;;;;;;;;33.75;29.75;;;;;24.86;51.13;100440.78;5062565;28;45469;-72
2022/08/16 01:48:28;;;;;;;;;28.00;24.50;;;;;24.86;51.52;100440.78;5060816;28;45363;-70
2022/08/16 01:50:54;;;;;;;;;28.25;27.00;;;;;24.88;51.03;100438.72;5062619;28;45366;-72
2022/08/16 01:53:20;;;;;;;;;32.50;30.25;;;;;24.87;51.33;100448.66;5061426;28;45387;-72
2022/08/16 01:55:46;;;;;;;;;35.00;30.00;;;;;24.86;51.12;100438.06;5062565;28;45398;-75
2022/08/16 01:58:14;;;;;;;;;30.25;27.25;;;;;24.83;51.07;100442.00;5062243;28;45375;-72
2022/08/16 02:00:40;;;;;;;;;26.00;24.75;;;;;24.83;50.86;100451.94;5062129;28;45296;-73
2022/08/16 02:03:06;;;;;;;;;28.50;26.50;;;;;24.80;51.10;100445.06;5062394;28;45548;-71
2022/08/16 02:05:31;;;;;;;;;29.25;26.50;;;;;24.84;50.90;100451.75;5062235;28;46034;-71
2022/08/16 02:07:57;;;;;;;;;33.50;27.00;;;;;24.83;50.74;100444.69;5062233;28;45312;-71
2022/08/16 02:10:23;;;;;;;;;30.00;26.50;;;;;24.83;50.94;100441.16;5061847;28;45341;-72
2022/08/16 02:12:49;;;;;;;;;31.75;28.75;;;;;24.82;51.40;100436.81;5067332;28;45399;-72
2022/08/16 02:15:16;;;;;;;;;26.50;25.00;;;;;24.85;50.81;100436.41;5068252;28;47179;-72
2022/08/16 02:17:42;;;;;;;;;33.25;27.00;;;;;24.89;51.30;100441.22;5066774;28;45384;-71
2022/08/16 02:20:09;;;;;;;;;27.25;25.50;;;;;24.96;51.12;100435.88;5069147;27;45377;-71
2022/08/16 02:22:35;;;;;;;;;28.00;24.75;;;;;24.95;51.14;100445.00;5068443;27;45568;-73
2022/08/16 02:25:01;;;;;;;;;30.25;27.50;;;;;24.90;51.34;100440.22;5071693;28;45533;-75
2022/08/16 02:27:27;;;;;;;;;26.50;26.25;;;;;24.86;51.04;100438.06;5069941;28;45441;-75
2022/08/16 02:29:52;;;;;;;;;27.75;25.50;;;;;24.86;51.29;100440.78;5063191;28;45220;-72
2022/08/16 02:32:18;;;;;;;;;32.00;26.25;;;;;24.88;51.03;100436.84;5062247;28;45405;-72
2022/08/16 02:34:44;;;;;;;;;29.50;27.00;;;;;24.90;51.27;100428.59;5062204;28;45206;-71
2022/08/16 02:37:10;;;;;;;;;28.25;27.25;;;;;24.94;51.42;100421.78;5062215;28;45177;-72
2022/08/16 02:39:35;;;;;;;;;34.00;28.00;;;;;24.96;51.51;100415.19;5061979;28;45252;-72
2022/08/16 02:42:01;;;;;;;;;29.50;28.50;;;;;25.01;51.50;100414.59;5062224;28;45509;-72
2022/08/16 02:44:27;;;;;;;;;27.25;26.25;;;;;24.98;51.43;100409.59;5062072;28;46248;-73
2022/08/16 02:46:52;;;;;;;;;33.50;28.50;;;;;24.92;51.20;100408.50;5061742;28;45281;-72
2022/08/16 02:49:18;;;;;;;;;28.00;25.50;;;;;24.90;51.29;100393.56;5062306;28;45309;-73
2022/08/16 02:51:44;;;;;;;;;32.75;29.00;;;;;24.92;51.21;100389.66;5062020;28;45459;-73
2022/08/16 02:54:12;;;;;;;;;25.25;23.50;;;;;24.89;51.45;100391.91;5060611;28;45358;-73
2022/08/16 02:56:38;;;;;;;;;27.75;26.50;;;;;24.82;51.08;100399.09;5061783;28;45326;-73
2022/08/16 02:59:03;;;;;;;;;28.00;26.50;;;;;24.75;51.31;100393.63;5062205;28;45298;-73
2022/08/16 03:01:32;;;;;;;;;32.25;30.25;;;;;24.71;51.62;100397.72;5061772;28;45559;-73
2022/08/16 03:03:59;;;;;;;;;31.50;28.25;;;;;24.69;51.78;100389.00;5061755;28;45367;-72
2022/08/16 03:06:26;;;;;;;;;27.00;25.25;;;;;24.70;51.87;100375.31;5061638;28;45389;-73
2022/08/16 03:08:52;;;;;;;;;31.50;28.75;;;;;24.78;52.05;100363.59;5061850;28;45442;-73
2022/08/16 03:11:18;;;;;;;;;32.00;28.75;;;;;24.89;51.77;100365.78;5061741;28;45215;-73
2022/08/16 03:13:46;;;;;;;;;32.50;30.50;;;;;24.94;51.80;100370.59;5061634;28;46215;-72
2022/08/16 03:16:11;;;;;;;;;40.25;32.75;;;;;24.94;51.97;100366.03;5061393;28;45546;-72
2022/08/16 03:18:37;;;;;;;;;36.75;33.50;;;;;24.94;51.55;100378.66;5061806;28;45378;-72
2022/08/16 03:21:03;;;;;;;;;36.50;33.00;;;;;24.88;51.61;100382.97;5060164;28;45509;-72
2022/08/16 03:23:29;;;;;;;;;41.00;33.75;;;;;24.85;51.97;100391.44;5061038;28;45467;-73
2022/08/16 03:25:54;;;;;;;;;39.00;33.75;;;;;24.76;52.16;100389.91;5043958;28;45319;-72
2022/08/16 03:28:20;;;;;;;;;30.00;27.00;;;;;24.67;51.71;100399.97;5041449;28;45352;-73
2022/08/16 03:30:45;;;;;;;;;43.75;33.75;;;;;24.59;52.04;100405.47;5041233;28;45343;-72
2022/08/16 03:33:11;;;;;;;;;36.75;33.25;;;;;24.51;52.06;100413.66;5041268;28;46081;-72
2022/08/16 03:35:37;;;;;;;;;43.75;32.00;;;;;24.44;52.75;100404.66;5041154;28;45213;-72
2022/08/16 03:38:05;;;;;;;;;41.00;35.50;;;;;24.45;52.20;100409.03;5041276;28;45193;-72
2022/08/16 03:40:33;;;;;;;;;37.50;32.25;;;;;24.51;52.39;100408.28;5041118;28;45483;-71
2022/08/16 03:42:59;;;;;;;;;33.00;30.25;;;;;24.48;52.78;100412.16;5041097;28;45382;-71
2022/08/16 03:45:25;;;;;;;;;36.25;32.75;;;;;24.41;53.01;100408.59;5041204;28;45492;-72
2022/08/16 03:47:51;;;;;;;;;35.25;32.25;;;;;24.38;52.50;100410.81;5051105;28;45327;-72
2022/08/16 03:50:17;;;;;;;;;37.50;32.25;;;;;24.35;52.65;100405.81;5061022;28;45589;-72
2022/08/16 03:52:43;;;;;;;;;43.25;34.50;;;;;24.30;53.06;100409.03;5061082;28;45300;-74
2022/08/16 03:55:10;;;;;;;;;33.25;30.75;;;;;24.33;52.83;100403.31;5060865;28;45234;-75
2022/08/16 03:57:36;;;;;;;;;36.00;31.75;;;;;24.41;53.00;100400.50;5061221;28;45244;-74
2022/08/16 04:00:11;;;;;;;;;41.75;35.75;;;;;24.49;53.08;100410.34;5059469;28;45478;-74
2022/08/16 04:02:37;;;;;;;;;34.75;32.00;;;;;24.52;53.24;100404.56;5060785;28;46131;-74
2022/08/16 04:05:04;;;;;;;;;43.50;36.25;;;;;24.50;53.43;100399.38;5060676;28;45327;-74
2022/08/16 04:07:29;;;;;;;;;36.00;32.75;;;;;24.47;53.13;100409.66;5059634;28;45329;-74
2022/08/16 04:09:54;;;;;;;;;40.50;33.50;;;;;24.40;53.47;100401.50;5060710;28;45371;-75
2022/08/16 04:12:20;;;;;;;;;38.50;32.50;;;;;24.33;53.21;100407.84;5060749;28;45287;-75
2022/08/16 04:14:46;;;;;;;;;41.25;34.00;;;;;24.27;53.71;100422.88;5060574;28;45338;-75
2022/08/16 04:17:14;;;;;;;;;37.75;33.00;;;;;24.25;53.66;100427.59;5060838;28;45333;-76
2022/08/16 04:19:40;;;;;;;;;42.00;34.25;;;;;24.29;53.82;100425.38;5060775;28;45486;-75
2022/08/16 04:22:05;;;;;;;;;42.25;32.00;;;;;24.40;53.35;100423.03;5055816;28;45474;-75
2022/08/16 04:24:31;;;;;;;;;42.75;34.00;;;;;24.42;53.81;100422.88;5053261;28;45449;-75
2022/08/16 04:26:56;;;;;;;;;38.75;32.50;;;;;24.42;53.60;100414.81;5040869;28;45478;-75
2022/08/16 04:29:22;;;;;;;;;33.75;32.00;;;;;24.49;53.96;100413.84;5040509;28;45493;-75
2022/08/16 04:31:49;;;;;;;;;35.00;32.00;;;;;24.58;53.95;100422.66;5040277;28;46213;-75
2022/08/16 04:34:14;;;;;;;;;33.00;29.50;;;;;24.65;53.57;100428.13;5040323;28;45391;-73
2022/08/16 04:36:39;;;;;;;;;39.50;34.50;;;;;24.71;53.63;100422.78;5040398;28;45374;-73
2022/08/16 04:39:05;;;;;;;;;38.00;31.50;;;;;24.75;53.72;100418.69;5040134;28;45303;-73
2022/08/16 04:41:31;;;;;;;;;35.75;30.00;;;;;24.78;53.50;100422.84;5040117;28;46027;-72
2022/08/16 04:43:57;;;;;;;;;33.75;30.00;;;;;24.81;53.60;100418.97;5040215;28;45232;-73
2022/08/16 04:46:22;;;;;;;;;39.00;33.25;;;;;24.83;53.33;100417.75;5040257;28;45182;-74
2022/08/16 04:48:48;;;;;;;;;36.25;32.50;;;;;24.86;53.45;100420.03;5058336;28;45240;-74
2022/08/16 04:51:13;;;;;;;;;36.25;33.50;;;;;24.87;53.44;100416.31;5060294;28;45555;-73
2022/08/16 04:53:39;;;;;;;;;35.00;32.00;;;;;24.90;53.43;100418.66;5059878;28;45264;-73
2022/08/16 04:56:05;;;;;;;;;40.00;32.75;;;;;24.90;53.04;100428.59;5060482;28;45242;-73
2022/08/16 04:58:32;;;;;;;;;35.50;30.50;;;;;24.90;53.56;100424.03;5060402;28;45232;-73
2022/08/16 05:00:58;;;;;;;;;28.75;24.25;;;;;24.90;53.23;100428.59;5060180;28;45449;-73
2022/08/16 05:03:23;;;;;;;;;32.25;31.00;;;;;24.89;53.20;100433.16;5060106;28;45331;-73
2022/08/16 05:05:50;;;;;;;;;33.75;31.25;;;;;24.89;53.03;100437.72;5052851;28;45375;-73
2022/08/16 05:08:15;;;;;;;;;35.50;31.25;;;;;24.90;53.33;100429.44;5042080;28;45295;-73
2022/08/16 05:10:41;;;;;;;;;35.25;32.50;;;;;24.95;53.38;100428.84;5040171;28;45416;-73
2022/08/16 05:13:06;;;;;;;;;34.25;31.25;;;;;24.98;53.51;100423.09;5044918;28;45446;-73
2022/08/16 05:15:33;;;;;;;;;38.25;33.25;;;;;24.93;53.02;100431.72;5060123;28;45517;-75
2022/08/16 05:17:59;;;;;;;;;31.50;28.00;;;;;24.84;53.31;100437.44;5063445;28;45450;-74
2022/08/16 05:20:26;;;;;;;;;35.00;32.25;;;;;24.76;53.38;100441.91;5063192;28;45448;-74
2022/08/16 05:22:51;;;;;;;;;31.50;29.75;;;;;24.70;53.49;100441.84;5063236;28;45671;-75
2022/08/16 05:25:17;;;;;;;;;31.75;29.50;;;;;24.60;53.36;100452.91;5051107;28;45415;-74
2022/08/16 05:27:44;;;;;;;;;32.00;29.75;;;;;24.51;53.25;100456.75;5043086;28;45505;-72
2022/08/16 05:30:13;;;;;;;;;33.00;29.75;;;;;24.47;53.50;100460.81;5043011;28;45440;-75
2022/08/16 05:32:40;;;;;;;;;31.00;28.00;;;;;24.48;54.13;100466.03;5042945;28;45235;-74
2022/08/16 05:35:09;;;;;;;;;31.75;29.25;;;;;24.50;53.55;100469.38;5043020;28;45315;-71
2022/08/16 05:37:36;;;;;;;;;34.00;32.25;;;;;24.48;54.12;100478.66;5042877;28;45501;-71
2022/08/16 05:40:04;;;;;;;;;31.00;29.75;;;;;24.48;54.17;100476.78;5042602;28;45385;-71
2022/08/16 05:42:30;;;;;;;;;28.25;26.25;;;;;24.46;53.73;100475.31;5042869;28;45186;-71
2022/08/16 05:44:55;;;;;;;;;20.25;17.75;;;;;24.45;54.07;100471.78;5042842;28;45250;-74
2022/08/16 05:47:21;;;;;;;;;21.50;18.75;;;;;24.46;53.84;100472.63;5043034;28;45242;-73
2022/08/16 05:49:46;;;;;;;;;22.75;18.00;;;;;24.45;53.46;100470.97;5056390;28;45495;-74
2022/08/16 05:52:12;;;;;;;;;20.50;17.25;;;;;24.44;53.98;100477.38;5062989;28;45228;-74
2022/08/16 05:54:38;;;;;;;;;21.25;19.00;;;;;24.42;53.49;100472.19;5062879;28;45486;-74
2022/08/16 05:57:04;;;;;;;;;18.00;17.00;;;;;24.42;53.78;100482.13;5062965;28;45620;-74
2022/08/16 05:59:30;;;;;;;;;17.75;16.00;;;;;24.42;53.90;100482.13;5062692;28;45343;-74
2022/08/16 06:01:55;;;;;;;;;19.00;17.50;;;;;24.42;53.42;100477.56;5064370;28;45467;-72
2022/08/16 06:04:21;;;;;;;;;18.00;15.50;;;;;24.42;53.47;100482.94;5042690;28;45284;-73
2022/08/16 06:06:47;;;;;;;;;15.25;14.75;;;;;24.43;53.26;100473.84;5058149;28;45203;-74
2022/08/16 06:09:14;;;;;;;;;20.00;17.00;;;;;24.45;53.87;100471.78;5053741;28;45341;-72
2022/08/16 06:11:40;;;;;;;;;18.00;16.50;;;;;24.53;53.89;100475.41;5066975;28;45381;-72
2022/08/16 06:14:06;;;;;;;;;18.25;17.25;;;;;24.59;53.80;100494.34;5058042;28;45287;-71
2022/08/16 06:16:32;;;;;;;;;14.75;14.25;;;;;24.61;53.29;100486.06;5062692;27;45633;-73
2022/08/16 06:18:57;;;;;;;;;16.50;15.00;;;;;24.61;53.39;100489.59;5066871;28;45291;-72
2022/08/16 06:21:23;;;;;;;;;15.00;14.50;;;;;24.62;52.60;100496.66;5070876;27;45407;-72
2022/08/16 06:23:49;;;;;;;;;16.75;15.75;;;;;24.63;52.58;100490.25;5070338;28;46050;-74
2022/08/16 06:26:14;;;;;;;;;16.75;14.25;;;;;24.65;52.92;100490.91;5068914;28;45370;-73
2022/08/16 06:28:40;;;;;;;;;15.50;14.25;;;;;24.72;52.63;100488.28;5066431;28;45598;-73
2022/08/16 06:31:08;;;;;;;;;16.75;15.75;;;;;24.82;52.41;100491.53;5071851;28;45325;-73
2022/08/16 06:33:34;;;;;;;;;15.50;15.50;;;;;24.92;52.60;100489.34;5068255;27;45480;-73
2022/08/16 06:35:59;;;;;;;;;19.50;17.00;;;;;25.00;52.07;100494.63;5071136;28;45212;-73
2022/08/16 06:38:26;;;;;;;;;16.00;16.00;;;;;25.09;51.97;100495.34;5061934;28;45368;-73
2022/08/16 06:40:51;;;;;;;;;20.25;18.00;;;;;25.13;52.54;100493.97;5062225;28;45287;-73
2022/08/16 06:43:19;;;;;;;;;14.25;12.25;;;;;25.22;52.40;100497.38;5062097;28;45383;-74
2022/08/16 06:45:45;;;;;;;;;17.00;15.75;;;;;25.20;51.83;100491.31;5062021;28;45353;-74
2022/08/16 06:48:11;;;;;;;;;19.00;17.25;;;;;25.17;52.28;100499.78;5060599;28;45562;-74
2022/08/16 06:50:36;;;;;;;;;19.75;18.00;;;;;25.15;51.79;100499.16;5062234;28;45372;-73
2022/08/16 06:53:02;;;;;;;;;19.75;17.00;;;;;25.17;52.17;100489.84;5063209;28;45232;-73
2022/08/16 06:55:33;;;;;;;;;18.25;15.75;;;;;25.22;51.98;100482.03;5062062;28;45548;-74
2022/08/16 06:57:59;;;;;;;;;19.75;17.50;;;;;25.29;51.64;100490.19;5061744;28;45577;-74
2022/08/16 07:00:25;;;;;;;;;18.50;18.25;;;;;25.36;51.78;100492.91;5061942;28;45331;-74
2022/08/16 07:02:55;;;;;;;;;19.75;19.00;;;;;25.39;51.98;100481.75;5061893;28;45265;-73
2022/08/16 07:05:21;;;;;;;;;22.00;18.25;;;;;25.41;51.88;100490.47;5062065;28;45243;-73
2022/08/16 07:07:48;;;;;;;;;24.50;19.50;;;;;25.42;51.66;100492.16;5061528;28;45267;-73
2022/08/16 07:10:15;;;;;;;;;26.25;24.50;;;;;25.45;51.35;100495.31;5061847;28;45293;-73
2022/08/16 07:12:41;;;;;;;;;20.75;20.25;;;;;25.46;51.68;100499.66;5059393;28;45540;-73
2022/08/16 07:15:08;;;;;;;;;25.00;20.50;;;;;25.50;51.46;100498.25;5061543;28;45302;-74
2022/08/16 07:17:35;;;;;;;;;24.75;20.50;;;;;25.53;51.67;100495.19;5061485;28;45181;-73
2022/08/16 07:20:01;;;;;;;;;17.25;17.00;;;;;25.53;51.76;100497.88;5061654;28;45239;-73
2022/08/16 07:22:26;;;;;;;;;21.25;19.00;;;;;25.50;51.52;100500.09;5061352;28;45239;-73
2022/08/16 07:24:52;;;;;;;;;20.50;18.00;;;;;25.49;50.87;100501.13;5051847;28;45404;-74
2022/08/16 07:27:17;;;;;;;;;25.00;21.00;;;;;25.51;51.75;100505.31;5041185;28;45255;-73
2022/08/16 07:29:43;;;;;;;;;19.75;17.25;;;;;25.50;51.50;100502.81;5041334;28;45319;-73
2022/08/16 07:32:10;;;;;;;;;22.00;16.75;;;;;25.54;51.49;100507.63;5041126;28;45296;-73
2022/08/16 07:34:35;;;;;;;;;20.00;17.75;;;;;25.53;51.07;100505.13;5041485;28;45296;-73
2022/08/16 07:37:05;;;;;;;;;21.25;18.25;;;;;25.54;51.27;100513.03;5056101;28;45496;-73
2022/08/16 07:39:30;;;;;;;;;18.00;18.00;;;;;25.57;51.08;100517.19;5060928;28;46397;-73
2022/08/16 07:41:56;;;;;;;;;25.00;21.00;;;;;25.58;51.16;100516.16;5060920;28;45238;-73
2022/08/16 07:44:21;;;;;;;;;23.50;18.00;;;;;25.53;50.94;100505.97;5061435;28;45231;-73
2022/08/16 07:46:47;;;;;;;;;20.50;18.50;;;;;25.50;51.35;100509.03;5060759;28;45431;-73
2022/08/16 07:49:12;;;;;;;;;18.50;17.00;;;;;25.52;51.04;100511.56;5061180;28;45323;-73
2022/08/16 07:51:38;;;;;;;;;22.00;18.75;;;;;25.57;51.13;100514.50;5061402;28;45233;-73
2022/08/16 07:54:08;;;;;;;;;17.50;16.50;;;;;25.53;51.12;100511.34;5067732;28;45457;-72
2022/08/16 07:56:33;;;;;;;;;17.50;17.25;;;;;25.57;50.91;100512.63;5065230;28;45256;-74
2022/08/16 07:59:00;;;;;;;;;19.25;18.00;;;;;25.57;51.08;100509.09;5067503;27;46373;-73
2022/08/16 08:01:28;;;;;;;;;19.75;17.50;;;;;25.58;51.10;100516.16;5066604;27;45453;-72
2022/08/16 08:03:54;;;;;;;;;16.50;16.50;;;;;25.55;50.66;100519.25;5067272;28;45335;-72
2022/08/16 08:06:22;;;;;;;;;19.50;17.00;;;;;25.58;50.88;100522.38;5066506;28;45331;-73
2022/08/16 08:08:48;;;;;;;;;19.00;17.00;;;;;25.63;50.65;100521.81;5067456;27;45240;-73
2022/08/16 08:11:13;;;;;;;;;19.50;17.00;;;;;25.67;50.96;100522.25;5066081;27;45296;-75
2022/08/16 08:13:39;;;;;;;;;17.00;16.75;;;;;25.70;50.83;100522.72;5070407;28;45318;-73
2022/08/16 08:16:04;;;;;;;;;18.50;16.00;;;;;25.74;50.44;100521.31;5069023;28;45440;-73
2022/08/16 08:18:30;;;;;;;;;20.00;17.75;;;;;25.75;50.67;100517.59;5067008;28;45295;-74
2022/08/16 08:20:55;;;;;;;;;19.25;19.00;;;;;25.81;50.42;100518.66;5063730;28;45268;-73
2022/08/16 08:23:22;;;;;;;;;18.75;17.50;;;;;25.85;50.08;100520.78;5066147;28;45229;-73
2022/08/16 08:25:48;;;;;;;;;19.50;19.50;;;;;25.87;50.39;100518.72;5071252;28;45369;-72
2022/08/16 08:28:14;;;;;;;;;19.25;18.25;;;;;25.95;50.48;100525.84;5068945;27;45371;-73
2022/08/16 08:30:40;;;;;;;;;18.00;17.75;;;;;25.98;50.27;100530.00;5065865;28;45447;-73
2022/08/16 08:33:06;;;;;;;;;18.00;15.75;;;;;25.97;49.98;100518.38;5067037;27;45552;-73
2022/08/16 08:35:33;;;;;;;;;17.00;14.75;;;;;26.02;50.01;100526.72;5065867;28;45675;-73
2022/08/16 08:37:59;;;;;;;;;18.25;17.00;;;;;26.05;49.92;100529.03;5069281;28;45241;-73
2022/08/16 08:40:27;;;;;;;;;18.25;17.75;;;;;26.10;49.99;100525.75;5067310;28;45493;-73
2022/08/16 08:42:57;;;;;;;;;22.50;21.25;;;;;26.13;50.01;100528.88;5066076;28;45572;-72
2022/08/16 08:45:23;;;;;;;;;20.00;15.50;;;;;26.17;49.91;100521.22;5065666;28;45336;-74
2022/08/16 08:47:48;;;;;;;;;19.75;15.75;;;;;26.26;49.78;100524.59;5069931;28;45306;-74
2022/08/16 08:50:16;;;;;;;;;17.25;17.25;;;;;26.31;49.82;100528.38;5071358;28;45450;-72
2022/08/16 08:52:43;;;;;;;;;17.00;16.00;;;;;26.34;49.82;100536.06;5072797;28;45535;-71
2022/08/16 08:55:11;;;;;;;;;18.75;18.50;;;;;26.31;49.53;100547.28;5046614;28;46143;-73
2022/08/16 08:57:45;;;;;;;;;16.50;15.50;;;;;26.34;49.38;100532.53;5043842;28;45347;-63
2022/08/16 09:00:13;;;;;;;;;17.25;15.25;;;;;26.36;49.57;100536.69;5042862;28;45373;-63
2022/08/16 09:02:41;;;;;;;;;20.25;15.75;;;;;26.38;49.02;100531.09;5042257;28;45247;-64
2022/08/16 09:05:06;;;;;;;;;17.25;16.00;;;;;26.36;49.20;100530.47;5043221;28;45391;-64
2022/08/16 09:07:32;;;;;;;;;15.00;15.00;;;;;26.38;49.26;100526.56;5043605;28;45461;-63
2022/08/16 09:09:58;;;;;;;;;17.25;14.50;;;;;26.39;49.25;100536.34;5043318;28;45688;-63
2022/08/16 09:12:23;;;;;;;;;16.00;14.75;;;;;26.42;49.21;100538.63;5043642;28;45370;-63
2022/08/16 09:14:49;;;;;;;;;16.00;13.75;;;;;26.48;48.94;100541.59;5042898;28;46067;-64
2022/08/16 09:17:14;;;;;;;;;14.50;14.50;;;;;26.53;49.21;100544.50;5043366;28;45307;-64
2022/08/16 09:19:40;;;;;;;;;18.00;15.00;;;;;26.58;48.99;100536.66;5043473;28;45343;-64
2022/08/16 09:22:07;;;;;;;;;20.00;14.75;;;;;26.67;48.76;100540.84;5043364;28;45323;-62
2022/08/16 09:24:33;;;;;;;;;14.75;14.00;;;;;26.79;48.67;100546.53;5054331;28;45273;-63
2022/08/16 09:26:59;;;;;;;;;15.75;14.00;;;;;26.88;48.59;100550.72;5063439;28;45432;-64
2022/08/16 09:29:24;;;;;;;;;14.75;13.00;;;;;26.96;48.22;100547.84;5063318;28;45203;-63
2022/08/16 09:31:50;;;;;;;;;14.25;14.00;;;;;27.01;48.10;100553.44;5063393;28;45239;-63
2022/08/16 09:34:15;;;;;;;;;18.50;15.25;;;;;27.03;48.27;100562.22;5063095;28;45323;-64
2022/08/16 09:36:41;;;;;;;;;18.75;17.00;;;;;27.03;48.16;100555.97;5063273;28;45161;-64
2022/08/16 09:39:07;;;;;;;;;56.75;44.00;;;;;27.07;47.76;100568.06;5063048;28;45384;-64
2022/08/16 09:41:33;;;;;;;;;45.25;35.75;;;;;27.05;47.82;100560.16;5063021;28;45397;-63
2022/08/16 09:43:59;;;;;;;;;55.50;42.50;;;;;27.05;47.42;100554.75;5062767;28;46201;-64
2022/08/16 09:46:26;;;;;;;;;43.25;31.75;;;;;27.07;47.64;100560.78;5061660;28;45338;-63
2022/08/16 09:48:53;;;;;;;;;19.75;17.50;;;;;27.14;47.48;100555.41;5063078;28;45486;-65
2022/08/16 09:51:22;;;;;;;;;16.00;14.00;;;;;27.26;47.54;100559.19;5061848;28;45512;-64
2022/08/16 09:53:48;;;;;;;;;19.00;19.00;;;;;27.37;47.01;100560.47;5062510;28;45583;-63
2022/08/16 09:56:24;;;;;;;;;20.50;17.50;;;;;27.41;46.98;100556.28;5062713;28;45505;-64
2022/08/16 09:58:49;;;;;;;;;18.00;16.25;;;;;27.41;46.96;100559.84;5063278;28;45267;-63
2022/08/16 10:01:15;;;;;;;;;29.50;25.50;;;;;27.42;46.73;100555.28;5062750;28;45565;-63
2022/08/16 10:03:41;;;;;;;;;24.25;20.00;;;;;27.42;46.53;100550.69;5062707;28;45285;-64
2022/08/16 10:06:06;;;;;;;;;23.25;20.25;;;;;27.42;46.70;100555.28;5062584;28;45358;-63
2022/08/16 10:08:32;;;;;;;;;15.75;14.00;;;;;27.43;46.49;100557.78;5062696;28;45423;-63
2022/08/16 10:13:43;;;;;;;;;15.00;13.00;;;;;27.43;46.59;100562.34;5062366;28;45392;-62
2022/08/16 10:16:12;;;;;;;;;18.75;15.50;;;;;27.37;46.50;100561.28;5062284;28;45208;-63
2022/08/16 10:18:39;;;;;;;;;13.50;13.25;;;;;27.26;46.45;100565.44;5062367;28;45506;-63
2022/08/16 10:21:05;;;;;;;;;15.00;14.75;;;;;27.23;46.29;100560.41;5062262;28;45402;-63
2022/08/16 10:23:31;;;;;;;;;71.00;59.67;;;;;27.29;46.18;100560.66;5061840;28;45357;-63
2022/08/16 10:25:57;;;;;;;;;15.00;15.00;;;;;27.37;46.43;100555.88;5060727;28;45318;-63
2022/08/16 10:28:24;;;;;;;;;14.75;14.00;;;;;27.43;46.53;100555.06;5062428;28;45464;-63
2022/08/16 10:30:49;;;;;;;;;15.25;14.50;;;;;27.46;46.38;100557.34;5062111;28;45173;-64
2022/08/16 10:33:16;;;;;;;;;16.50;14.25;;;;;27.47;46.38;100567.13;5062260;28;46233;-64
2022/08/16 10:35:43;;;;;;;;;12.75;11.25;;;;;27.46;46.20;100568.16;5061881;28;45251;-64
2022/08/16 10:38:11;;;;;;;;;16.50;12.25;;;;;27.44;46.21;100561.31;5062111;28;45353;-64
2022/08/16 10:40:39;;;;;;;;;16.50;14.25;;;;;27.45;46.46;100565.69;5061707;28;45555;-64
2022/08/16 10:43:04;;;;;;;;;13.75;13.00;;;;;27.45;46.11;100566.50;5062110;28;46067;-65
2022/08/16 10:45:31;;;;;;;;;14.75;13.00;;;;;27.46;46.44;100564.63;5061511;28;45407;-63
2022/08/16 10:47:57;;;;;;;;;15.25;14.00;;;;;27.47;46.10;100563.59;5061753;28;45302;-63
2022/08/16 10:50:22;;;;;;;;;12.50;12.50;;;;;27.50;46.36;100557.78;5061742;28;45516;-64
2022/08/16 10:52:48;;;;;;;;;17.00;14.50;;;;;27.54;46.27;100556.31;5061452;28;46265;-63
2022/08/16 10:55:14;;;;;;;;;15.75;14.50;;;;;27.55;46.40;100560.69;5061270;28;45462;-64
2022/08/16 10:57:40;;;;;;;;;13.00;13.00;;;;;27.61;46.32;100562.56;5061366;28;45346;-64
2022/08/16 11:00:11;;;;;;;;;16.50;15.75;;;;;27.67;46.35;100558.25;5061297;28;45331;-63
2022/08/16 11:02:37;;;;;;;;;21.25;17.50;;;;;27.71;46.48;100563.03;5061220;28;46537;-63
2022/08/16 11:05:05;;;;;;;;;19.00;16.50;;;;;27.74;45.82;100562.63;5061321;28;45397;-64
2022/08/16 11:07:31;;;;;;;;;17.75;13.75;;;;;27.81;45.91;100566.19;5061649;28;45302;-63
2022/08/16 11:10:00;;;;;;;;;15.75;14.50;;;;;27.92;46.06;100570.13;5061130;28;45464;-64